sensor_id;sensor_type;location;lat;lon;timestamp;temperature;humidity
21834;DHT22;11079;51.092;3.458;2023-07-31T00:00:10;17.70;99.90
21834;DHT22;11079;51.092;3.458;2023-07-31T00:02:36;17.60;99.90
21834;DHT22;11079;51.092;3.458;2023-07-31T00:05:03;17.60;99.90
21834;DHT22;11079;51.092;3.458;2023-07-31T00:07:29;17.70;99.90
21834;DHT22;11079;51.092;3.458;2023-07-31T00:09:54;17.80;99.90
21834;DHT22;11079;51.092;3.458;2023-07-31T00:12:23;17.80;99.90
21834;DHT22;11079;51.092;3.458;2023-07-31T00:14:49;17.80;99.90
21834;DHT22;11079;51.092;3.458;2023-07-31T00:17:16;17.80;99.90
21834;DHT22;11079;51.092;3.458;2023-07-31T00:19:42;17.80;99.90
21834;DHT22;11079;51.092;3.458;2023-07-31T00:22:07;17.70;99.90
21834;DHT22;11079;51.092;3.458;2023-07-31T00:24:33;17.70;99.90
21834;DHT22;11079;51.092;3.458;2023-07-31T00:26:58;17.80;99.90
21834;DHT22;11079;51.092;3.458;2023-07-31T00:29:24;17.90;99.90
21834;DHT22;11079;51.092;3.458;2023-07-31T00:31:49;17.90;99.90
21834;DHT22;11079;51.092;3.458;2023-07-31T00:34:15;17.90;99.90
21834;DHT22;11079;51.092;3.458;2023-07-31T00:36:40;17.80;99.90
21834;DHT22;11079;51.092;3.458;2023-07-31T00:39:06;17.80;99.90
21834;DHT22;11079;51.092;3.458;2023-07-31T00:41:32;17.80;99.90
21834;DHT22;11079;51.092;3.458;2023-07-31T00:43:57;17.80;99.90
21834;DHT22;11079;51.092;3.458;2023-07-31T00:46:23;17.70;99.90
21834;DHT22;11079;51.092;3.458;2023-07-31T00:48:49;17.80;99.90
21834;DHT22;11079;51.092;3.458;2023-07-31T00:51:15;17.80;99.90
21834;DHT22;11079;51.092;3.458;2023-07-31T00:53:41;17.80;99.90
21834;DHT22;11079;51.092;3.458;2023-07-31T00:56:08;17.90;99.90
21834;DHT22;11079;51.092;3.458;2023-07-31T00:58:34;17.90;99.90
21834;DHT22;11079;51.092;3.458;2023-07-31T01:01:00;17.80;99.90
21834;DHT22;11079;51.092;3.458;2023-07-31T01:03:25;17.80;99.90
21834;DHT22;11079;51.092;3.458;2023-07-31T01:09:03;17.80;99.90
21834;DHT22;11079;51.092;3.458;2023-07-31T01:11:36;17.80;99.90
21834;DHT22;11079;51.092;3.458;2023-07-31T01:14:04;17.80;99.90
21834;DHT22;11079;51.092;3.458;2023-07-31T01:16:30;17.90;99.90
21834;DHT22;11079;51.092;3.458;2023-07-31T01:18:55;17.80;99.90
21834;DHT22;11079;51.092;3.458;2023-07-31T01:24:20;18.00;99.90
21834;DHT22;11079;51.092;3.458;2023-07-31T01:27:11;18.10;99.90
21834;DHT22;11079;51.092;3.458;2023-07-31T01:32:09;18.00;99.90
21834;DHT22;11079;51.092;3.458;2023-07-31T01:34:36;17.90;99.90
21834;DHT22;11079;51.092;3.458;2023-07-31T01:37:02;18.00;99.90
21834;DHT22;11079;51.092;3.458;2023-07-31T01:39:28;17.90;99.90
21834;DHT22;11079;51.092;3.458;2023-07-31T01:41:54;17.90;99.90
21834;DHT22;11079;51.092;3.458;2023-07-31T01:44:20;18.00;99.90
21834;DHT22;11079;51.092;3.458;2023-07-31T01:46:45;18.00;99.90
21834;DHT22;11079;51.092;3.458;2023-07-31T01:49:11;18.00;99.90
21834;DHT22;11079;51.092;3.458;2023-07-31T01:51:36;18.00;99.90
21834;DHT22;11079;51.092;3.458;2023-07-31T01:54:02;18.00;99.90
21834;DHT22;11079;51.092;3.458;2023-07-31T01:56:28;18.00;99.90
21834;DHT22;11079;51.092;3.458;2023-07-31T01:58:54;18.00;99.90
21834;DHT22;11079;51.092;3.458;2023-07-31T02:01:19;18.00;99.90
21834;DHT22;11079;51.092;3.458;2023-07-31T02:03:45;18.00;99.90
21834;DHT22;11079;51.092;3.458;2023-07-31T02:06:10;18.10;99.90
21834;DHT22;11079;51.092;3.458;2023-07-31T02:08:36;18.00;99.90
21834;DHT22;11079;51.092;3.458;2023-07-31T02:11:02;18.00;99.90
21834;DHT22;11079;51.092;3.458;2023-07-31T02:13:27;18.00;99.90
21834;DHT22;11079;51.092;3.458;2023-07-31T02:15:53;18.00;99.90
21834;DHT22;11079;51.092;3.458;2023-07-31T02:18:19;18.00;99.90
21834;DHT22;11079;51.092;3.458;2023-07-31T02:20:49;18.00;99.90
21834;DHT22;11079;51.092;3.458;2023-07-31T02:23:15;18.00;99.90
21834;DHT22;11079;51.092;3.458;2023-07-31T02:25:41;18.00;99.90
21834;DHT22;11079;51.092;3.458;2023-07-31T02:28:06;18.10;99.90
21834;DHT22;11079;51.092;3.458;2023-07-31T02:30:32;18.00;99.90
21834;DHT22;11079;51.092;3.458;2023-07-31T02:32:57;18.00;99.90
21834;DHT22;11079;51.092;3.458;2023-07-31T02:35:23;18.10;99.90
21834;DHT22;11079;51.092;3.458;2023-07-31T02:37:48;18.20;99.90
21834;DHT22;11079;51.092;3.458;2023-07-31T02:40:14;18.10;99.90
21834;DHT22;11079;51.092;3.458;2023-07-31T02:42:40;17.90;99.90
21834;DHT22;11079;51.092;3.458;2023-07-31T02:45:06;18.00;99.90
21834;DHT22;11079;51.092;3.458;2023-07-31T02:47:31;18.10;99.90
21834;DHT22;11079;51.092;3.458;2023-07-31T02:49:57;18.10;99.90
21834;DHT22;11079;51.092;3.458;2023-07-31T02:52:23;18.10;99.90
21834;DHT22;11079;51.092;3.458;2023-07-31T02:54:48;18.10;99.90
21834;DHT22;11079;51.092;3.458;2023-07-31T02:57:14;17.90;99.90
21834;DHT22;11079;51.092;3.458;2023-07-31T02:59:39;17.90;99.90
21834;DHT22;11079;51.092;3.458;2023-07-31T03:02:05;17.90;99.90
21834;DHT22;11079;51.092;3.458;2023-07-31T03:04:31;17.90;99.90
21834;DHT22;11079;51.092;3.458;2023-07-31T03:06:56;17.90;99.90
21834;DHT22;11079;51.092;3.458;2023-07-31T03:09:22;17.70;99.90
21834;DHT22;11079;51.092;3.458;2023-07-31T03:11:48;17.60;99.90
21834;DHT22;11079;51.092;3.458;2023-07-31T03:14:13;17.50;99.90
21834;DHT22;11079;51.092;3.458;2023-07-31T03:16:39;17.40;99.90
21834;DHT22;11079;51.092;3.458;2023-07-31T03:19:05;17.30;99.90
21834;DHT22;11079;51.092;3.458;2023-07-31T03:21:30;17.10;99.90
21834;DHT22;11079;51.092;3.458;2023-07-31T03:23:56;17.10;99.90
21834;DHT22;11079;51.092;3.458;2023-07-31T03:26:21;17.10;99.90
21834;DHT22;11079;51.092;3.458;2023-07-31T03:28:47;17.00;99.90
21834;DHT22;11079;51.092;3.458;2023-07-31T03:31:13;16.90;99.90
21834;DHT22;11079;51.092;3.458;2023-07-31T03:33:38;16.90;99.90
21834;DHT22;11079;51.092;3.458;2023-07-31T03:36:04;16.80;99.90
21834;DHT22;11079;51.092;3.458;2023-07-31T03:38:30;16.90;99.90
21834;DHT22;11079;51.092;3.458;2023-07-31T03:40:55;16.90;99.90
21834;DHT22;11079;51.092;3.458;2023-07-31T03:43:21;17.00;99.90
21834;DHT22;11079;51.092;3.458;2023-07-31T03:45:47;17.00;99.90
21834;DHT22;11079;51.092;3.458;2023-07-31T03:48:14;16.90;99.90
21834;DHT22;11079;51.092;3.458;2023-07-31T03:50:39;17.00;99.90
21834;DHT22;11079;51.092;3.458;2023-07-31T03:53:05;16.90;99.90
21834;DHT22;11079;51.092;3.458;2023-07-31T03:55:31;16.90;99.90
21834;DHT22;11079;51.092;3.458;2023-07-31T03:57:56;17.00;99.90
21834;DHT22;11079;51.092;3.458;2023-07-31T04:00:22;17.00;99.90
21834;DHT22;11079;51.092;3.458;2023-07-31T04:02:48;17.00;99.90
21834;DHT22;11079;51.092;3.458;2023-07-31T04:05:13;16.90;99.90
21834;DHT22;11079;51.092;3.458;2023-07-31T04:07:39;17.00;99.90
21834;DHT22;11079;51.092;3.458;2023-07-31T04:10:05;17.10;99.90
21834;DHT22;11079;51.092;3.458;2023-07-31T04:12:30;17.00;99.90
21834;DHT22;11079;51.092;3.458;2023-07-31T04:14:56;17.10;99.90
21834;DHT22;11079;51.092;3.458;2023-07-31T04:17:22;17.00;99.90
21834;DHT22;11079;51.092;3.458;2023-07-31T04:19:47;16.90;99.90
21834;DHT22;11079;51.092;3.458;2023-07-31T04:22:13;16.90;99.90
21834;DHT22;11079;51.092;3.458;2023-07-31T04:24:39;17.00;99.90
21834;DHT22;11079;51.092;3.458;2023-07-31T04:27:04;16.90;99.90
21834;DHT22;11079;51.092;3.458;2023-07-31T04:29:30;17.00;99.90
21834;DHT22;11079;51.092;3.458;2023-07-31T04:31:56;17.00;99.90
21834;DHT22;11079;51.092;3.458;2023-07-31T04:34:21;17.00;99.90
21834;DHT22;11079;51.092;3.458;2023-07-31T04:36:47;17.20;99.90
21834;DHT22;11079;51.092;3.458;2023-07-31T04:39:12;17.20;99.90
21834;DHT22;11079;51.092;3.458;2023-07-31T04:41:38;17.20;99.90
21834;DHT22;11079;51.092;3.458;2023-07-31T04:44:04;17.20;99.90
21834;DHT22;11079;51.092;3.458;2023-07-31T04:46:29;17.20;99.90
21834;DHT22;11079;51.092;3.458;2023-07-31T04:48:55;17.20;99.90
21834;DHT22;11079;51.092;3.458;2023-07-31T04:51:21;17.20;99.90
21834;DHT22;11079;51.092;3.458;2023-07-31T04:53:47;17.20;99.90
21834;DHT22;11079;51.092;3.458;2023-07-31T04:56:12;17.20;99.90
21834;DHT22;11079;51.092;3.458;2023-07-31T04:58:39;17.20;99.90
21834;DHT22;11079;51.092;3.458;2023-07-31T05:01:04;17.20;99.90
21834;DHT22;11079;51.092;3.458;2023-07-31T05:03:30;17.20;99.90
21834;DHT22;11079;51.092;3.458;2023-07-31T05:05:56;17.30;99.90
21834;DHT22;11079;51.092;3.458;2023-07-31T05:08:21;17.30;99.90
21834;DHT22;11079;51.092;3.458;2023-07-31T05:10:47;17.30;99.90
21834;DHT22;11079;51.092;3.458;2023-07-31T05:13:13;17.30;99.90
21834;DHT22;11079;51.092;3.458;2023-07-31T05:15:38;17.30;99.90
21834;DHT22;11079;51.092;3.458;2023-07-31T05:18:04;17.20;99.90
21834;DHT22;11079;51.092;3.458;2023-07-31T05:20:30;17.20;99.90
21834;DHT22;11079;51.092;3.458;2023-07-31T05:22:56;17.10;99.90
21834;DHT22;11079;51.092;3.458;2023-07-31T05:25:22;17.10;99.90
21834;DHT22;11079;51.092;3.458;2023-07-31T05:27:47;17.20;99.90
21834;DHT22;11079;51.092;3.458;2023-07-31T05:30:13;17.20;99.90
21834;DHT22;11079;51.092;3.458;2023-07-31T05:32:38;17.30;99.90
21834;DHT22;11079;51.092;3.458;2023-07-31T05:35:04;17.30;99.90
21834;DHT22;11079;51.092;3.458;2023-07-31T05:37:30;17.30;99.90
21834;DHT22;11079;51.092;3.458;2023-07-31T05:39:56;17.30;99.90
21834;DHT22;11079;51.092;3.458;2023-07-31T05:42:22;17.30;99.90
21834;DHT22;11079;51.092;3.458;2023-07-31T05:44:47;17.30;99.90
21834;DHT22;11079;51.092;3.458;2023-07-31T05:47:13;17.40;99.90
21834;DHT22;11079;51.092;3.458;2023-07-31T05:49:39;17.30;99.90
21834;DHT22;11079;51.092;3.458;2023-07-31T05:52:05;17.30;99.90
21834;DHT22;11079;51.092;3.458;2023-07-31T05:54:31;17.30;99.90
21834;DHT22;11079;51.092;3.458;2023-07-31T05:56:57;17.30;99.90
21834;DHT22;11079;51.092;3.458;2023-07-31T05:59:23;17.30;99.90
21834;DHT22;11079;51.092;3.458;2023-07-31T06:01:48;17.30;99.90
21834;DHT22;11079;51.092;3.458;2023-07-31T06:04:14;17.30;99.90
21834;DHT22;11079;51.092;3.458;2023-07-31T06:06:40;17.20;99.90
21834;DHT22;11079;51.092;3.458;2023-07-31T06:09:06;17.20;99.90
21834;DHT22;11079;51.092;3.458;2023-07-31T06:11:32;17.20;99.90
21834;DHT22;11079;51.092;3.458;2023-07-31T06:13:59;17.10;99.90
21834;DHT22;11079;51.092;3.458;2023-07-31T06:16:25;17.10;99.90
21834;DHT22;11079;51.092;3.458;2023-07-31T06:18:51;17.10;99.90
21834;DHT22;11079;51.092;3.458;2023-07-31T06:21:17;17.10;99.90
21834;DHT22;11079;51.092;3.458;2023-07-31T06:23:42;17.20;99.90
21834;DHT22;11079;51.092;3.458;2023-07-31T06:26:09;17.10;99.90
21834;DHT22;11079;51.092;3.458;2023-07-31T06:28:36;17.20;99.90
21834;DHT22;11079;51.092;3.458;2023-07-31T06:31:01;17.20;99.90
21834;DHT22;11079;51.092;3.458;2023-07-31T06:33:27;17.20;99.90
21834;DHT22;11079;51.092;3.458;2023-07-31T06:35:53;17.30;99.90
21834;DHT22;11079;51.092;3.458;2023-07-31T06:38:22;17.20;99.90
21834;DHT22;11079;51.092;3.458;2023-07-31T06:40:49;17.30;99.90
21834;DHT22;11079;51.092;3.458;2023-07-31T06:43:15;17.30;99.90
21834;DHT22;11079;51.092;3.458;2023-07-31T06:45:40;17.40;99.90
21834;DHT22;11079;51.092;3.458;2023-07-31T06:48:06;17.40;99.90
21834;DHT22;11079;51.092;3.458;2023-07-31T06:50:32;17.40;99.90
21834;DHT22;11079;51.092;3.458;2023-07-31T06:52:58;17.50;99.90
21834;DHT22;11079;51.092;3.458;2023-07-31T06:55:24;17.50;99.90
21834;DHT22;11079;51.092;3.458;2023-07-31T06:57:52;17.50;99.90
21834;DHT22;11079;51.092;3.458;2023-07-31T07:00:18;17.70;99.90
21834;DHT22;11079;51.092;3.458;2023-07-31T07:02:45;17.70;99.90
21834;DHT22;11079;51.092;3.458;2023-07-31T07:05:13;17.70;99.90
21834;DHT22;11079;51.092;3.458;2023-07-31T07:07:38;17.70;99.90
21834;DHT22;11079;51.092;3.458;2023-07-31T07:10:05;17.70;99.90
21834;DHT22;11079;51.092;3.458;2023-07-31T07:12:31;18.00;99.90
21834;DHT22;11079;51.092;3.458;2023-07-31T07:14:58;18.10;99.90
21834;DHT22;11079;51.092;3.458;2023-07-31T07:17:24;18.30;99.90
21834;DHT22;11079;51.092;3.458;2023-07-31T07:19:50;18.30;99.90
21834;DHT22;11079;51.092;3.458;2023-07-31T07:22:16;18.20;99.90
21834;DHT22;11079;51.092;3.458;2023-07-31T07:24:41;18.20;99.90
21834;DHT22;11079;51.092;3.458;2023-07-31T07:27:07;18.20;99.90
21834;DHT22;11079;51.092;3.458;2023-07-31T07:29:34;18.10;99.90
21834;DHT22;11079;51.092;3.458;2023-07-31T07:32:00;18.00;99.90
21834;DHT22;11079;51.092;3.458;2023-07-31T07:34:26;17.90;99.90
21834;DHT22;11079;51.092;3.458;2023-07-31T07:36:52;17.90;99.90
21834;DHT22;11079;51.092;3.458;2023-07-31T07:39:18;18.00;99.90
21834;DHT22;11079;51.092;3.458;2023-07-31T07:41:43;17.90;99.90
21834;DHT22;11079;51.092;3.458;2023-07-31T07:44:09;17.90;99.90
21834;DHT22;11079;51.092;3.458;2023-07-31T07:46:35;18.00;99.90
21834;DHT22;11079;51.092;3.458;2023-07-31T07:49:00;17.90;99.90
21834;DHT22;11079;51.092;3.458;2023-07-31T07:51:26;18.00;99.90
21834;DHT22;11079;51.092;3.458;2023-07-31T07:53:52;18.00;99.90
21834;DHT22;11079;51.092;3.458;2023-07-31T07:56:17;18.20;99.90
21834;DHT22;11079;51.092;3.458;2023-07-31T07:58:43;18.30;99.90
21834;DHT22;11079;51.092;3.458;2023-07-31T08:01:08;18.40;99.90
21834;DHT22;11079;51.092;3.458;2023-07-31T08:03:34;18.50;99.90
21834;DHT22;11079;51.092;3.458;2023-07-31T08:06:00;18.50;99.90
21834;DHT22;11079;51.092;3.458;2023-07-31T08:08:27;18.30;99.90
21834;DHT22;11079;51.092;3.458;2023-07-31T08:10:52;18.30;99.90
21834;DHT22;11079;51.092;3.458;2023-07-31T08:13:18;18.30;99.90
21834;DHT22;11079;51.092;3.458;2023-07-31T08:15:44;18.40;99.90
21834;DHT22;11079;51.092;3.458;2023-07-31T08:18:10;18.40;99.90
21834;DHT22;11079;51.092;3.458;2023-07-31T08:20:37;18.50;99.90
21834;DHT22;11079;51.092;3.458;2023-07-31T08:23:03;18.50;99.90
21834;DHT22;11079;51.092;3.458;2023-07-31T08:25:28;18.50;99.90
21834;DHT22;11079;51.092;3.458;2023-07-31T08:27:54;18.50;99.90
21834;DHT22;11079;51.092;3.458;2023-07-31T08:30:19;18.60;99.90
21834;DHT22;11079;51.092;3.458;2023-07-31T08:32:45;18.90;99.90
21834;DHT22;11079;51.092;3.458;2023-07-31T08:35:11;19.10;99.90
21834;DHT22;11079;51.092;3.458;2023-07-31T08:37:37;19.30;99.90
21834;DHT22;11079;51.092;3.458;2023-07-31T08:40:04;19.40;99.90
21834;DHT22;11079;51.092;3.458;2023-07-31T08:42:29;19.30;99.90
21834;DHT22;11079;51.092;3.458;2023-07-31T08:44:56;19.50;99.90
21834;DHT22;11079;51.092;3.458;2023-07-31T08:47:22;19.80;99.90
21834;DHT22;11079;51.092;3.458;2023-07-31T08:49:49;19.60;99.90
21834;DHT22;11079;51.092;3.458;2023-07-31T08:52:15;19.30;99.90
21834;DHT22;11079;51.092;3.458;2023-07-31T08:54:41;19.30;99.90
21834;DHT22;11079;51.092;3.458;2023-07-31T08:57:07;19.30;99.90
21834;DHT22;11079;51.092;3.458;2023-07-31T08:59:34;19.40;99.90
21834;DHT22;11079;51.092;3.458;2023-07-31T09:02:06;19.40;99.90
21834;DHT22;11079;51.092;3.458;2023-07-31T09:04:33;19.30;99.90
21834;DHT22;11079;51.092;3.458;2023-07-31T09:07:01;19.00;99.90
21834;DHT22;11079;51.092;3.458;2023-07-31T09:09:29;18.80;99.90
21834;DHT22;11079;51.092;3.458;2023-07-31T09:11:55;18.80;99.90
21834;DHT22;11079;51.092;3.458;2023-07-31T09:14:21;18.90;99.90
21834;DHT22;11079;51.092;3.458;2023-07-31T09:16:58;19.00;99.90
21834;DHT22;11079;51.092;3.458;2023-07-31T09:19:35;19.20;99.90
21834;DHT22;11079;51.092;3.458;2023-07-31T09:22:05;19.10;99.90
21834;DHT22;11079;51.092;3.458;2023-07-31T09:24:32;19.00;99.90
21834;DHT22;11079;51.092;3.458;2023-07-31T09:27:00;18.90;99.90
21834;DHT22;11079;51.092;3.458;2023-07-31T09:29:27;18.90;99.90
21834;DHT22;11079;51.092;3.458;2023-07-31T09:31:54;19.20;99.90
21834;DHT22;11079;51.092;3.458;2023-07-31T09:34:27;19.40;99.90
21834;DHT22;11079;51.092;3.458;2023-07-31T09:36:53;19.40;99.90
21834;DHT22;11079;51.092;3.458;2023-07-31T09:39:19;19.40;99.90
21834;DHT22;11079;51.092;3.458;2023-07-31T09:41:54;19.40;99.90
21834;DHT22;11079;51.092;3.458;2023-07-31T09:44:20;19.40;99.90
21834;DHT22;11079;51.092;3.458;2023-07-31T09:46:45;19.40;99.90
21834;DHT22;11079;51.092;3.458;2023-07-31T09:49:12;19.50;99.90
21834;DHT22;11079;51.092;3.458;2023-07-31T09:51:40;19.60;99.90
21834;DHT22;11079;51.092;3.458;2023-07-31T09:54:13;19.70;99.90
21834;DHT22;11079;51.092;3.458;2023-07-31T09:56:44;19.80;99.90
21834;DHT22;11079;51.092;3.458;2023-07-31T09:59:17;20.00;99.90
21834;DHT22;11079;51.092;3.458;2023-07-31T10:01:45;20.10;99.90
21834;DHT22;11079;51.092;3.458;2023-07-31T10:04:12;20.20;99.90
21834;DHT22;11079;51.092;3.458;2023-07-31T10:06:40;20.20;99.90
21834;DHT22;11079;51.092;3.458;2023-07-31T10:09:09;20.30;99.90
21834;DHT22;11079;51.092;3.458;2023-07-31T10:11:45;20.30;99.90
21834;DHT22;11079;51.092;3.458;2023-07-31T10:14:18;20.40;99.90
21834;DHT22;11079;51.092;3.458;2023-07-31T10:16:45;20.20;99.90
21834;DHT22;11079;51.092;3.458;2023-07-31T10:19:10;20.30;99.90
21834;DHT22;11079;51.092;3.458;2023-07-31T10:21:37;20.30;99.90
21834;DHT22;11079;51.092;3.458;2023-07-31T10:24:04;20.50;99.90
21834;DHT22;11079;51.092;3.458;2023-07-31T10:26:31;20.50;99.90
21834;DHT22;11079;51.092;3.458;2023-07-31T10:28:58;20.40;99.90
21834;DHT22;11079;51.092;3.458;2023-07-31T10:31:25;20.50;99.90
21834;DHT22;11079;51.092;3.458;2023-07-31T10:33:52;20.80;99.90
21834;DHT22;11079;51.092;3.458;2023-07-31T10:36:21;20.70;99.90
21834;DHT22;11079;51.092;3.458;2023-07-31T10:38:50;20.80;99.90
21834;DHT22;11079;51.092;3.458;2023-07-31T10:41:16;20.70;99.90
21834;DHT22;11079;51.092;3.458;2023-07-31T10:43:42;20.90;99.90
21834;DHT22;11079;51.092;3.458;2023-07-31T10:46:12;21.20;99.90
21834;DHT22;11079;51.092;3.458;2023-07-31T10:48:39;21.10;99.90
21834;DHT22;11079;51.092;3.458;2023-07-31T10:51:11;21.00;99.90
21834;DHT22;11079;51.092;3.458;2023-07-31T10:53:41;21.00;99.90
21834;DHT22;11079;51.092;3.458;2023-07-31T10:56:09;21.00;99.90
21834;DHT22;11079;51.092;3.458;2023-07-31T10:58:36;20.80;99.90
21834;DHT22;11079;51.092;3.458;2023-07-31T11:01:04;20.80;99.90
21834;DHT22;11079;51.092;3.458;2023-07-31T11:03:49;20.70;99.90
21834;DHT22;11079;51.092;3.458;2023-07-31T11:06:17;21.00;99.90
21834;DHT22;11079;51.092;3.458;2023-07-31T11:08:45;21.20;99.90
21834;DHT22;11079;51.092;3.458;2023-07-31T11:11:13;21.30;99.90
21834;DHT22;11079;51.092;3.458;2023-07-31T11:13:40;21.40;99.90
21834;DHT22;11079;51.092;3.458;2023-07-31T11:16:06;21.60;99.90
21834;DHT22;11079;51.092;3.458;2023-07-31T11:18:32;21.20;99.90
21834;DHT22;11079;51.092;3.458;2023-07-31T11:20:58;21.20;99.90
21834;DHT22;11079;51.092;3.458;2023-07-31T11:23:24;21.20;99.90
21834;DHT22;11079;51.092;3.458;2023-07-31T11:25:50;21.20;99.90
21834;DHT22;11079;51.092;3.458;2023-07-31T11:28:17;21.50;99.90
21834;DHT22;11079;51.092;3.458;2023-07-31T11:30:45;21.40;99.90
21834;DHT22;11079;51.092;3.458;2023-07-31T11:33:12;21.70;99.90
21834;DHT22;11079;51.092;3.458;2023-07-31T11:35:47;22.00;99.90
21834;DHT22;11079;51.092;3.458;2023-07-31T11:38:28;22.10;99.90
21834;DHT22;11079;51.092;3.458;2023-07-31T11:40:55;22.00;99.90
21834;DHT22;11079;51.092;3.458;2023-07-31T11:43:22;21.70;99.90
21834;DHT22;11079;51.092;3.458;2023-07-31T11:45:58;21.40;99.90
21834;DHT22;11079;51.092;3.458;2023-07-31T11:48:34;21.30;99.90
21834;DHT22;11079;51.092;3.458;2023-07-31T11:51:03;21.20;99.90
21834;DHT22;11079;51.092;3.458;2023-07-31T11:53:58;21.30;99.90
21834;DHT22;11079;51.092;3.458;2023-07-31T11:56:26;21.60;99.90
21834;DHT22;11079;51.092;3.458;2023-07-31T11:58:57;21.90;99.90
21834;DHT22;11079;51.092;3.458;2023-07-31T12:01:23;21.70;99.90
21834;DHT22;11079;51.092;3.458;2023-07-31T12:03:50;21.70;99.90
21834;DHT22;11079;51.092;3.458;2023-07-31T12:06:16;21.70;99.90
21834;DHT22;11079;51.092;3.458;2023-07-31T12:08:41;21.70;99.90
21834;DHT22;11079;51.092;3.458;2023-07-31T12:11:08;21.60;99.90
21834;DHT22;11079;51.092;3.458;2023-07-31T12:13:40;21.30;99.90
21834;DHT22;11079;51.092;3.458;2023-07-31T12:16:05;21.10;99.90
21834;DHT22;11079;51.092;3.458;2023-07-31T12:18:36;21.00;99.90
21834;DHT22;11079;51.092;3.458;2023-07-31T12:21:05;20.70;99.90
21834;DHT22;11079;51.092;3.458;2023-07-31T12:23:33;20.40;99.90
21834;DHT22;11079;51.092;3.458;2023-07-31T12:28:47;19.90;99.90
21834;DHT22;11079;51.092;3.458;2023-07-31T12:31:18;19.90;99.90
21834;DHT22;11079;51.092;3.458;2023-07-31T12:33:46;19.90;99.90
21834;DHT22;11079;51.092;3.458;2023-07-31T12:36:30;19.80;99.90
21834;DHT22;11079;51.092;3.458;2023-07-31T12:38:57;19.60;99.90
21834;DHT22;11079;51.092;3.458;2023-07-31T12:41:24;19.50;99.90
21834;DHT22;11079;51.092;3.458;2023-07-31T12:43:49;19.50;99.90
21834;DHT22;11079;51.092;3.458;2023-07-31T12:46:15;19.40;99.90
21834;DHT22;11079;51.092;3.458;2023-07-31T12:48:42;19.30;99.90
21834;DHT22;11079;51.092;3.458;2023-07-31T12:51:08;19.40;99.90
21834;DHT22;11079;51.092;3.458;2023-07-31T12:53:34;19.30;99.90
21834;DHT22;11079;51.092;3.458;2023-07-31T12:56:00;19.30;99.90
21834;DHT22;11079;51.092;3.458;2023-07-31T12:58:26;19.40;99.90
21834;DHT22;11079;51.092;3.458;2023-07-31T13:00:52;19.20;99.90
21834;DHT22;11079;51.092;3.458;2023-07-31T13:03:17;19.00;99.90
21834;DHT22;11079;51.092;3.458;2023-07-31T13:05:43;18.80;99.90
21834;DHT22;11079;51.092;3.458;2023-07-31T13:08:08;18.80;99.90
21834;DHT22;11079;51.092;3.458;2023-07-31T13:10:34;18.70;99.90
21834;DHT22;11079;51.092;3.458;2023-07-31T13:13:00;18.70;99.90
21834;DHT22;11079;51.092;3.458;2023-07-31T13:15:25;18.60;99.90
21834;DHT22;11079;51.092;3.458;2023-07-31T13:17:51;18.50;99.90
21834;DHT22;11079;51.092;3.458;2023-07-31T13:20:16;18.50;99.90
21834;DHT22;11079;51.092;3.458;2023-07-31T13:22:42;18.60;99.90
21834;DHT22;11079;51.092;3.458;2023-07-31T13:25:08;18.60;99.90
21834;DHT22;11079;51.092;3.458;2023-07-31T13:27:34;18.70;99.90
21834;DHT22;11079;51.092;3.458;2023-07-31T13:30:01;18.70;99.90
21834;DHT22;11079;51.092;3.458;2023-07-31T13:32:26;18.60;99.90
21834;DHT22;11079;51.092;3.458;2023-07-31T13:34:52;18.60;99.90
21834;DHT22;11079;51.092;3.458;2023-07-31T13:37:18;18.70;99.90
21834;DHT22;11079;51.092;3.458;2023-07-31T13:39:43;18.70;99.90
21834;DHT22;11079;51.092;3.458;2023-07-31T13:42:09;18.80;99.90
21834;DHT22;11079;51.092;3.458;2023-07-31T13:44:41;18.90;99.90
21834;DHT22;11079;51.092;3.458;2023-07-31T13:47:07;18.90;99.90
21834;DHT22;11079;51.092;3.458;2023-07-31T13:49:34;18.90;99.90
21834;DHT22;11079;51.092;3.458;2023-07-31T13:52:00;18.90;99.90
21834;DHT22;11079;51.092;3.458;2023-07-31T13:54:27;18.90;99.90
21834;DHT22;11079;51.092;3.458;2023-07-31T13:56:54;18.90;99.90
21834;DHT22;11079;51.092;3.458;2023-07-31T13:59:20;18.80;99.90
21834;DHT22;11079;51.092;3.458;2023-07-31T14:01:46;18.90;99.90
21834;DHT22;11079;51.092;3.458;2023-07-31T14:04:12;18.90;99.90
21834;DHT22;11079;51.092;3.458;2023-07-31T14:06:38;18.80;99.90
21834;DHT22;11079;51.092;3.458;2023-07-31T14:09:04;18.80;99.90
21834;DHT22;11079;51.092;3.458;2023-07-31T14:11:32;18.70;99.90
21834;DHT22;11079;51.092;3.458;2023-07-31T14:13:57;18.70;99.90
21834;DHT22;11079;51.092;3.458;2023-07-31T14:16:23;18.60;99.90
21834;DHT22;11079;51.092;3.458;2023-07-31T14:18:49;18.70;99.90
21834;DHT22;11079;51.092;3.458;2023-07-31T14:21:15;18.70;99.90
21834;DHT22;11079;51.092;3.458;2023-07-31T14:23:40;18.70;99.90
21834;DHT22;11079;51.092;3.458;2023-07-31T14:26:06;18.70;99.90
21834;DHT22;11079;51.092;3.458;2023-07-31T14:28:32;18.70;99.90
21834;DHT22;11079;51.092;3.458;2023-07-31T14:30:58;18.70;99.90
21834;DHT22;11079;51.092;3.458;2023-07-31T14:33:24;18.60;99.90
21834;DHT22;11079;51.092;3.458;2023-07-31T14:35:49;18.70;99.90
21834;DHT22;11079;51.092;3.458;2023-07-31T14:38:15;18.80;99.90
21834;DHT22;11079;51.092;3.458;2023-07-31T14:40:41;18.90;99.90
21834;DHT22;11079;51.092;3.458;2023-07-31T14:43:07;19.00;99.90
21834;DHT22;11079;51.092;3.458;2023-07-31T14:45:32;18.90;99.90
21834;DHT22;11079;51.092;3.458;2023-07-31T14:47:58;18.90;99.90
21834;DHT22;11079;51.092;3.458;2023-07-31T14:50:25;18.90;99.90
21834;DHT22;11079;51.092;3.458;2023-07-31T14:52:52;18.80;99.90
21834;DHT22;11079;51.092;3.458;2023-07-31T14:55:18;18.70;99.90
21834;DHT22;11079;51.092;3.458;2023-07-31T14:57:44;18.80;99.90
21834;DHT22;11079;51.092;3.458;2023-07-31T15:00:10;18.80;99.90
21834;DHT22;11079;51.092;3.458;2023-07-31T15:02:39;18.70;99.90
21834;DHT22;11079;51.092;3.458;2023-07-31T15:05:05;18.80;99.90
21834;DHT22;11079;51.092;3.458;2023-07-31T15:07:32;18.80;99.90
21834;DHT22;11079;51.092;3.458;2023-07-31T15:09:58;18.80;99.90
21834;DHT22;11079;51.092;3.458;2023-07-31T15:12:23;18.70;99.90
21834;DHT22;11079;51.092;3.458;2023-07-31T15:14:49;18.70;99.90
21834;DHT22;11079;51.092;3.458;2023-07-31T15:17:15;18.70;99.90
21834;DHT22;11079;51.092;3.458;2023-07-31T15:19:41;18.80;99.90
21834;DHT22;11079;51.092;3.458;2023-07-31T15:22:06;18.80;99.90
21834;DHT22;11079;51.092;3.458;2023-07-31T15:24:32;18.90;99.90
21834;DHT22;11079;51.092;3.458;2023-07-31T15:26:58;18.90;99.90
21834;DHT22;11079;51.092;3.458;2023-07-31T15:29:24;18.90;99.90
21834;DHT22;11079;51.092;3.458;2023-07-31T15:31:50;19.00;99.90
21834;DHT22;11079;51.092;3.458;2023-07-31T15:34:16;19.00;99.90
21834;DHT22;11079;51.092;3.458;2023-07-31T15:36:41;19.10;99.90